Accueil
METAR-TAF:

METAR-TAF

Aéroports :

Locarno, Suisse

latitude: 46-09-55N, longitude: 8-52-40E, altitude: 198 m

Observation

Le bulletin a été fait il y a 5 heures et 17 minutes, à 05:50 UTC
Vent calme
Température 7°C
Humidité 93%
Pression 1016 hPa
Visibilité: 3400 m
Quelques nuages à une hauteur de 2100 ft
Nuages fragmentés à une hauteur de 3400 ft
bruine, brume

METAR: LSZL 250550Z AUTO 00000KT 3400NDV DZ BR FEW021 BKN034 07/06 Q1016 RMK

Heure: 12:07 (11:07 UTC)

Prévision

Le bulletin a été fait il y a 17 heures et 42 minutes, à 17:25 UTC
Prévision valable du 24 à 18 UTC au 25 à 03 UTC
Vent 3 kt de direction variable
Visibilité 10 km ou plus
Nuages fragmentés à une hauteur de 6000 ft
Probabilité 30% :
Temporairement
du 24 à 22 UTC au 25 à 03 UTC
Visibilité: 3000 m
brume

TAF: LSZL 241725Z 2418/2503 VRB03KT 9999 BKN060 PROB30 TEMPO 2422/2503 3000 BR

Observations et prévisions météorologiques de plus de 4000 aéroports (messages METAR et TAF).

Les stations disponibles sont représentées par des disques jaunes et rouges sur la carte.

Passer la souris dessus pour voir le nom de la station.

Cliquer dessus pour voir les observations et prévisions météorologiques.

Pour changer de carte: cliquez sur les boutons verts avec une croix noire pour zoomer, sur le bouton vert avec un tiret pour effectuer un zoom arrière, ou sur les flèches vertes pour les cartes adjacentes.


METAR-TAF: